Time;durP1;ratioP1;P1;durP2;ratioP2;P2;SDS_P1;SDS_P2;PMS_P1;PMS_P2;Temp;Humidity;BMP_temperature;BMP_pressure;BME280_temperature;BME280_humidity;BME280_pressure;Samples;Min_cycle;Max_cycle;Signal;HPM_P1;HPM_P2
2023/08/09 00:00:28;;;;;;;4.33;2.73;;;;;;;13.49;100.00;100548.52;1414711;90;21556;-80
2023/08/09 00:02:54;;;;;;;4.57;2.20;;;;;;;13.49;100.00;100544.53;1475859;88;21905;-80
2023/08/09 00:05:21;;;;;;;3.60;2.43;;;;;;;13.51;100.00;100547.84;1460669;88;21559;-80
2023/08/09 00:07:47;;;;;;;8.67;2.50;;;;;;;13.53;100.00;100549.02;1456025;87;21376;-79
2023/08/09 00:10:13;;;;;;;4.83;2.47;;;;;;;13.53;100.00;100546.36;1475160;87;23011;-80
2023/08/09 00:12:39;;;;;;;3.13;2.10;;;;;;;13.51;100.00;100543.84;1470555;87;21368;-80
2023/08/09 00:15:07;;;;;;;3.43;2.00;;;;;;;13.50;100.00;100542.20;1472240;87;21559;-81
2023/08/09 00:17:33;;;;;;;2.40;1.90;;;;;;;13.48;100.00;100538.86;1469076;87;21404;-80
2023/08/09 00:20:00;;;;;;;5.10;2.70;;;;;;;13.49;100.00;100537.88;1465125;88;21538;-80
2023/08/09 00:22:26;;;;;;;3.57;2.33;;;;;;;13.47;100.00;100544.36;1472277;87;21309;-81
2023/08/09 00:24:53;;;;;;;3.30;2.27;;;;;;;13.43;100.00;100544.33;1473976;87;21449;-80
2023/08/09 00:27:20;;;;;;;2.90;2.27;;;;;;;13.43;100.00;100546.99;1467242;87;21397;-78
2023/08/09 00:29:46;;;;;;;5.53;2.37;;;;;;;13.41;100.00;100556.47;1475028;87;21441;-79
2023/08/09 00:32:12;;;;;;;2.83;2.50;;;;;;;13.38;100.00;100546.17;1452909;87;21561;-80
2023/08/09 00:34:38;;;;;;;4.77;2.43;;;;;;;13.37;100.00;100553.79;1556341;87;21420;-81
2023/08/09 00:37:05;;;;;;;2.53;1.93;;;;;;;13.37;100.00;100555.63;1399075;87;21257;-80
2023/08/09 00:39:32;;;;;;;6.13;2.33;;;;;;;13.36;100.00;100556.13;1416225;88;21368;-80
2023/08/09 00:41:58;;;;;;;3.57;2.53;;;;;;;13.37;100.00;100552.45;1470350;87;21464;-81
2023/08/09 00:44:25;;;;;;;2.60;2.13;;;;;;;13.35;100.00;100554.47;1472479;87;21441;-80
2023/08/09 00:46:51;;;;;;;6.70;2.37;;;;;;;13.30;100.00;100550.13;1464453;88;21428;-80
2023/08/09 00:49:18;;;;;;;5.33;2.10;;;;;;;13.27;100.00;100553.11;1475386;87;22384;-80
2023/08/09 00:51:45;;;;;;;3.27;2.40;;;;;;;13.25;100.00;100555.92;1470002;88;21330;-80
2023/08/09 00:54:11;;;;;;;3.20;1.87;;;;;;;13.25;100.00;100554.59;1461099;88;21523;-81
2023/08/09 00:56:38;;;;;;;5.90;2.27;;;;;;;13.26;100.00;100551.43;1473380;87;21427;-81
2023/08/09 00:59:05;;;;;;;5.07;2.50;;;;;;;13.28;100.00;100553.44;1473638;87;21516;-81
2023/08/09 01:01:31;;;;;;;3.10;2.67;;;;;;;13.28;100.00;100552.11;1476057;87;21360;-80
2023/08/09 01:03:58;;;;;;;4.20;3.10;;;;;;;13.26;100.00;100558.08;1461894;88;21389;-81
2023/08/09 01:06:51;;;;;;;3.70;2.80;;;;;;;13.25;100.00;100556.39;1475923;87;21360;-81
2023/08/09 01:09:29;;;;;;;3.87;2.60;;;;;;;13.21;100.00;100557.72;1475468;87;21339;-80
2023/08/09 01:12:08;;;;;;;2.57;2.17;;;;;;;13.21;100.00;100565.19;1468808;87;21515;-80
2023/08/09 01:14:40;;;;;;;7.30;2.77;;;;;;;13.21;100.00;100561.70;1469115;88;21412;-81
2023/08/09 01:17:08;;;;;;;3.27;2.30;;;;;;;13.21;100.00;100561.70;1472080;87;21578;-80
2023/08/09 01:19:40;;;;;;;6.17;2.47;;;;;;;13.22;100.00;100559.37;1473926;87;21397;-80
2023/08/09 01:22:32;;;;;;;4.47;2.30;;;;;;;13.20;100.00;100560.84;1470740;87;21605;-80
2023/08/09 01:25:03;;;;;;;6.17;2.83;;;;;;;13.16;100.00;100564.01;1470395;88;21530;-80
2023/08/09 01:27:31;;;;;;;4.80;2.60;;;;;;;13.09;100.00;100562.50;1475560;87;21396;-81
2023/08/09 01:29:58;;;;;;;6.83;2.90;;;;;;;13.04;100.00;100558.98;1401892;87;21375;-79
2023/08/09 01:32:28;;;;;;;9.57;2.37;;;;;;;13.03;100.00;100561.31;1423271;88;21497;-80
2023/08/09 01:34:56;;;;;;;6.47;2.08;;;;;;;13.06;100.00;100557.01;1470970;88;21497;-79
2023/08/09 01:37:44;;;;;;;2.37;2.00;;;;;;;13.07;100.00;100563.98;1475015;88;21412;-80
2023/08/09 01:40:13;;;;;;;4.13;2.40;;;;;;;13.07;100.00;100566.63;1466726;88;22358;-80
2023/08/09 01:42:41;;;;;;;2.93;2.10;;;;;;;13.07;100.00;100569.80;1476507;87;21590;-80
2023/08/09 01:45:11;;;;;;;3.23;2.07;;;;;;;13.03;100.00;100566.63;1403099;87;21294;-81
2023/08/09 01:47:38;;;;;;;10.30;2.40;;;;;;;13.00;100.00;100569.58;1394368;87;22225;-79
2023/08/09 01:50:06;;;;;;;4.90;2.60;;;;;;;12.96;100.00;100572.73;1397087;87;21508;-80
2023/08/09 01:52:33;;;;;;;5.07;2.07;;;;;;;12.92;100.00;100563.40;1402129;87;21588;-80
2023/08/09 01:54:59;;;;;;;7.13;2.20;;;;;;;12.90;100.00;100564.91;1558424;87;21229;-79
2023/08/09 01:57:25;;;;;;;5.27;2.97;;;;;;;12.89;100.00;100571.22;1396669;87;21498;-80
2023/08/09 01:59:52;;;;;;;3.77;2.50;;;;;;;12.87;100.00;100563.89;1397910;87;21191;-79
2023/08/09 02:02:18;;;;;;;4.10;2.83;;;;;;;12.86;100.00;100567.05;1398208;87;21228;-79
2023/08/09 02:04:44;;;;;;;6.27;2.40;;;;;;;12.85;100.00;100560.56;1398213;87;21236;-80
2023/08/09 02:07:10;;;;;;;3.73;2.37;;;;;;;12.83;100.00;100559.88;1398403;87;21258;-80
2023/08/09 02:09:36;;;;;;;3.70;2.70;;;;;;;12.80;100.00;100560.20;1403507;87;21353;-80
2023/08/09 02:12:03;;;;;;;4.50;2.23;;;;;;;12.80;100.00;100565.50;1398574;88;22145;-80
2023/08/09 02:14:29;;;;;;;6.50;2.50;;;;;;;12.79;100.00;100566.51;1398221;87;22182;-79
2023/08/09 02:16:56;;;;;;;4.73;1.97;;;;;;;12.80;100.00;100564.17;1390605;89;21199;-79
2023/08/09 02:19:22;;;;;;;2.27;1.73;;;;;;;12.82;100.00;100563.03;1468529;87;21383;-79
2023/08/09 02:21:48;;;;;;;3.97;2.17;;;;;;;12.85;100.00;100568.52;1471473;87;21553;-80
2023/08/09 02:24:15;;;;;;;4.40;2.00;;;;;;;12.85;100.00;100568.52;1471240;88;21375;-79
2023/08/09 02:26:42;;;;;;;4.33;2.07;;;;;;;12.83;100.00;100571.83;1467831;87;21442;-79
2023/08/09 02:29:09;;;;;;;3.67;2.13;;;;;;;12.82;100.00;100572.83;1474508;87;22318;-80
2023/08/09 02:31:35;;;;;;;5.77;2.57;;;;;;;12.80;100.00;100570.34;1481952;87;21352;-79
2023/08/09 02:34:02;;;;;;;5.13;2.30;;;;;;;12.81;100.00;100575.16;1470957;87;21435;-80
2023/08/09 02:36:29;;;;;;;2.80;2.10;;;;;;;12.81;100.00;100568.52;1476227;88;22475;-80
2023/08/09 02:38:55;;;;;;;4.30;2.03;;;;;;;12.83;100.00;100571.83;1472678;88;21428;-80
2023/08/09 02:41:21;;;;;;;5.00;2.20;;;;;;;12.81;100.00;100575.16;1480901;87;21339;-79
2023/08/09 02:43:48;;;;;;;3.77;2.60;;;;;;;12.80;100.00;100570.81;1470503;88;21368;-78
2023/08/09 02:46:14;;;;;;;3.40;2.40;;;;;;;12.78;100.00;100579.46;1481556;88;21515;-80
2023/08/09 02:48:40;;;;;;;2.93;2.00;;;;;;;12.76;100.00;100578.78;1464957;88;21440;-79
2023/08/09 02:51:06;;;;;;;5.13;2.40;;;;;;;12.72;100.00;100575.61;1476912;87;21622;-80
2023/08/09 02:53:36;;;;;;;2.50;2.00;;;;;;;12.71;100.00;100586.37;1471074;88;21316;-80
2023/08/09 02:56:03;;;;;;;5.25;2.42;;;;;;;12.70;100.00;100583.39;1464698;88;21339;-79
2023/08/09 02:58:29;;;;;;;2.83;1.97;;;;;;;12.71;100.00;100581.06;1467690;87;22380;-80
2023/08/09 03:00:55;;;;;;;4.73;3.07;;;;;;;12.73;100.00;100587.06;1478124;88;21404;-80
2023/08/09 03:03:21;;;;;;;3.13;2.10;;;;;;;12.74;100.00;100589.55;1469630;88;21383;-79
2023/08/09 03:05:49;;;;;;;3.23;2.20;;;;;;;12.75;100.00;100589.07;1472483;88;21368;-80
2023/08/09 03:08:15;;;;;;;3.10;2.50;;;;;;;12.72;100.00;100596.03;1474749;87;21561;-81
2023/08/09 03:10:42;;;;;;;4.67;2.73;;;;;;;12.68;100.00;100583.53;1462950;88;21427;-80
2023/08/09 03:13:08;;;;;;;9.97;2.50;;;;;;;12.63;100.00;100580.55;1479661;87;21516;-79
2023/08/09 03:15:34;;;;;;;4.90;2.90;;;;;;;12.59;100.00;100585.31;1477085;88;21374;-79
2023/08/09 03:18:00;;;;;;;4.47;2.27;;;;;;;12.56;100.00;100584.30;1471547;88;22277;-80
2023/08/09 03:20:27;;;;;;;4.67;2.50;;;;;;;12.51;100.00;100590.56;1465244;88;21389;-79
2023/08/09 03:22:56;;;;;;;4.83;2.33;;;;;;;12.48;100.00;100602.00;1475739;87;21464;-79
2023/08/09 03:25:22;;;;;;;2.83;1.90;;;;;;;12.44;100.00;100598.83;1475634;88;21612;-80
2023/08/09 03:27:48;;;;;;;8.20;3.30;;;;;;;12.39;100.00;100605.92;1469564;87;22300;-80
2023/08/09 03:30:14;;;;;;;5.80;2.60;;;;;;;12.34;100.00;100604.72;1468457;88;21412;-79
2023/08/09 03:32:40;;;;;;;3.50;2.47;;;;;;;12.27;100.00;100611.64;1465664;88;21523;-80
2023/08/09 03:35:10;;;;;;;3.57;2.70;;;;;;;12.17;100.00;100616.55;1468088;87;22305;-79
2023/08/09 03:37:38;;;;;;;4.50;2.62;;;;;;;12.11;100.00;100614.98;1473742;88;22374;-80
2023/08/09 03:40:09;;;;;;;7.67;3.47;;;;;;;12.04;100.00;100622.73;1473071;87;21308;-80
2023/08/09 03:42:34;;;;;;;10.80;4.50;;;;;;;12.01;100.00;100624.86;1472587;88;21360;-80
2023/08/09 03:45:01;;;;;;;6.00;3.50;;;;;;;12.00;100.00;100625.36;1475517;87;22441;-80
2023/08/09 03:47:27;;;;;;;6.67;3.43;;;;;;;12.02;100.00;100627.34;1484297;87;21449;-80
2023/08/09 03:49:53;;;;;;;7.40;4.40;;;;;;;11.99;100.00;100635.61;1460659;88;21426;-80
2023/08/09 03:52:19;;;;;;;5.97;4.77;;;;;;;11.95;100.00;100635.58;1469676;88;21433;-81
2023/08/09 03:54:47;;;;;;;4.80;3.43;;;;;;;11.95;100.00;100643.54;1466804;88;22499;-80
2023/08/09 03:57:13;;;;;;;5.87;3.17;;;;;;;11.95;100.00;100639.06;1477404;87;21301;-81
2023/08/09 03:59:40;;;;;;;5.13;2.70;;;;;;;11.94;100.00;100643.20;1488744;87;22277;-80
2023/08/09 04:02:07;;;;;;;6.50;3.90;;;;;;;11.91;100.00;100643.02;1470298;87;21648;-79
2023/08/09 04:04:34;;;;;;;9.37;4.63;;;;;;;11.93;100.00;100646.83;1476374;88;21368;-80
2023/08/09 04:07:00;;;;;;;14.30;6.03;;;;;;;11.97;100.00;100642.91;1476986;87;21582;-80
2023/08/09 04:09:26;;;;;;;13.53;4.70;;;;;;;11.99;100.00;100646.22;1469621;88;21375;-79
2023/08/09 04:11:53;;;;;;;13.10;4.63;;;;;;;12.00;100.00;100654.53;1465738;88;21368;-80
2023/08/09 04:14:20;;;;;;;4.47;3.13;;;;;;;12.02;100.00;100648.56;1474031;87;21323;-80
2023/08/09 04:16:46;;;;;;;12.00;3.23;;;;;;;12.06;100.00;100653.92;1473464;87;22410;-80
2023/08/09 04:19:12;;;;;;;8.80;6.03;;;;;;;12.10;100.00;100655.27;1472202;88;21390;-80
2023/08/09 04:21:38;;;;;;;23.07;4.23;;;;;;;12.16;100.00;100649.36;1478904;88;21361;-80
2023/08/09 04:24:07;;;;;;;4.00;2.67;;;;;;;12.25;100.00;100654.73;1462424;88;22357;-80
2023/08/09 04:26:33;;;;;;;5.20;2.53;;;;;;;12.34;100.00;100652.48;1476735;87;21434;-80
2023/08/09 04:28:59;;;;;;;6.83;2.47;;;;;;;12.45;100.00;100648.27;1465399;87;21405;-80
2023/08/09 04:31:26;;;;;;;6.00;2.40;;;;;;;12.57;100.00;100645.72;1444109;88;22469;-79
2023/08/09 04:33:52;;;;;;;2.90;2.50;;;;;;;12.69;100.00;100650.28;1475478;87;21383;-79
2023/08/09 04:36:19;;;;;;;7.53;2.90;;;;;;;12.80;100.00;100653.15;1477620;88;22215;-79
2023/08/09 04:38:45;;;;;;;4.57;2.77;;;;;;;12.88;100.00;100655.86;1475538;87;21419;-80
2023/08/09 04:41:12;;;;;;;8.23;3.40;;;;;;;12.92;100.00;100650.59;1478113;87;21368;-79
2023/08/09 04:43:43;;;;;;;5.70;3.00;;;;;;;12.95;100.00;100650.27;1478010;88;21434;-79
2023/08/09 04:46:12;;;;;;;3.93;2.90;;;;;;;13.01;100.00;100648.31;1462195;88;21619;-78
2023/08/09 04:48:42;;;;;;;5.10;2.70;;;;;;;13.04;100.00;100649.32;1476946;88;21628;-78
2023/08/09 04:51:09;;;;;;;5.30;3.05;;;;;;;13.09;100.00;100653.67;1477743;87;21411;-78
2023/08/09 04:53:37;;;;;;;5.07;2.83;;;;;;;13.19;100.00;100656.70;1468841;88;21368;-78
2023/08/09 04:56:04;;;;;;;5.37;3.40;;;;;;;13.29;100.00;100658.28;1476459;87;21594;-79
2023/08/09 04:58:31;;;;;;;5.37;2.80;;;;;;;13.37;100.00;100664.11;1463675;88;21323;-78
2023/08/09 05:00:58;;;;;;;6.63;3.33;;;;;;;13.43;100.00;100665.30;1479185;87;22373;-79
2023/08/09 05:03:24;;;;;;;4.93;2.87;;;;;;;13.48;100.00;100659.84;1467487;88;21345;-78
2023/08/09 05:05:50;;;;;;;4.67;3.10;;;;;;;13.53;100.00;100669.50;1472796;87;21434;-79
2023/08/09 05:08:17;;;;;;;5.53;2.73;;;;;;;13.57;100.00;100666.52;1470245;87;21405;-78
2023/08/09 05:10:43;;;;;;;3.77;2.63;;;;;;;13.66;100.00;100668.20;1464565;88;21456;-78
2023/08/09 05:13:09;;;;;;;4.60;3.00;;;;;;;13.74;100.00;100674.37;1477208;87;21365;-78
2023/08/09 05:15:35;;;;;;;8.77;2.87;;;;;;;13.85;100.00;100675.91;1470818;87;22211;-78
2023/08/09 05:18:04;;;;;;;4.60;3.00;;;;;;;13.98;100.00;100672.77;1476587;88;21383;-78
2023/08/09 05:20:30;;;;;;;4.00;2.80;;;;;;;14.09;100.00;100670.30;1469311;87;22211;-78
2023/08/09 05:22:57;;;;;;;9.23;3.80;;;;;;;14.20;100.00;100671.30;1468890;87;21434;-78
2023/08/09 05:25:24;;;;;;;4.63;2.97;;;;;;;14.29;100.00;100672.97;1466204;87;21546;-78
2023/08/09 05:27:50;;;;;;;4.57;2.77;;;;;;;14.38;100.00;100674.63;1474566;88;22667;-79
2023/08/09 05:30:19;;;;;;;10.03;2.70;;;;;;;14.49;100.00;100661.99;1468285;87;21479;-79
2023/08/09 05:32:45;;;;;;;4.97;2.50;;;;;;;14.59;100.00;100662.70;1466848;87;21472;-79
2023/08/09 05:35:11;;;;;;;4.37;2.47;;;;;;;14.69;100.00;100666.00;1471449;88;21442;-79
2023/08/09 05:37:38;;;;;;;5.70;3.03;;;;;;;14.80;100.00;100660.83;1464590;88;22421;-78
2023/08/09 05:40:12;;;;;;;4.73;2.40;;;;;;;14.94;100.00;100669.97;1474766;87;21375;-79
2023/08/09 05:42:37;;;;;;;4.10;3.33;;;;;;;15.07;100.00;100666.25;1473201;88;22515;-79
2023/08/09 05:45:06;;;;;;;5.40;2.73;;;;;;;15.24;100.00;100669.70;1466914;87;21383;-80
2023/08/09 05:47:32;;;;;;;8.00;3.30;;;;;;;15.39;100.00;100668.47;1464398;87;21434;-79
2023/08/09 05:49:58;;;;;;;6.50;3.23;;;;;;;15.53;100.00;100668.56;1475937;87;21591;-79
2023/08/09 05:52:25;;;;;;;6.47;3.90;;;;;;;15.68;100.00;100671.86;1470672;88;22300;-79
2023/08/09 05:54:52;;;;;;;8.97;3.93;;;;;;;15.71;100.00;100666.20;1473962;87;22469;-80
2023/08/09 05:57:18;;;;;;;11.27;4.80;;;;;;;15.77;100.00;100672.17;1461126;88;21508;-78
2023/08/09 05:59:45;;;;;;;8.90;5.27;;;;;;;15.81;100.00;100674.80;1469566;88;21360;-78
2023/08/09 06:02:11;;;;;;;9.90;3.43;;;;;;;15.89;100.00;100671.27;1472285;87;22343;-78
2023/08/09 06:04:37;;;;;;;9.07;4.27;;;;;;;15.96;100.00;100680.22;1469911;87;21360;-77
2023/08/09 06:07:04;;;;;;;12.83;5.47;;;;;;;16.08;100.00;100677.45;1461700;88;21435;-78
2023/08/09 06:09:30;;;;;;;12.67;5.37;;;;;;;16.23;100.00;100677.03;1480694;88;21345;-78
2023/08/09 06:11:57;;;;;;;11.23;6.33;;;;;;;16.38;100.00;100678.41;1473400;87;22438;-78
2023/08/09 06:14:23;;;;;;;9.03;5.70;;;;;;;16.49;100.00;100675.83;1469378;87;21412;-79
2023/08/09 06:16:50;;;;;;;5.97;4.30;;;;;;;16.63;100.00;100673.70;1465932;88;21560;-80
2023/08/09 06:19:17;;;;;;;11.80;4.27;;;;;;;16.79;100.00;100671.39;1476547;88;21345;-79
2023/08/09 06:21:43;;;;;;;10.23;4.77;;;;;;;16.95;100.00;100673.09;1456749;88;22351;-78
2023/08/09 06:24:10;;;;;;;11.93;5.13;;;;;;;17.11;100.00;100664.86;1461446;88;21345;-79
2023/08/09 06:26:36;;;;;;;9.10;4.50;;;;;;;17.25;100.00;100669.07;1476502;87;21405;-87
2023/08/09 06:29:03;;;;;;;6.25;4.28;;;;;;;17.36;100.00;100670.77;1460268;88;21684;-87
2023/08/09 06:31:29;;;;;;;6.12;3.10;;;;;;;17.52;100.00;100673.76;1478807;87;21583;-88
2023/08/09 06:33:55;;;;;;;32.20;6.70;;;;;;;17.63;100.00;100669.75;1468049;87;21501;-86
2023/08/09 06:40:24;;;;;;;4.95;2.72;;;;;;;17.78;100.00;100669.25;1489202;88;21463;-87
2023/08/09 06:42:51;;;;;;;2.95;2.55;;;;;;;17.96;100.00;100668.83;1477947;87;22417;-86
2023/08/09 06:45:17;;;;;;;5.20;3.00;;;;;;;18.11;100.00;100662.58;1475397;87;21331;-88
2023/08/09 06:47:43;;;;;;;3.45;2.60;;;;;;;18.25;100.00;100671.06;1471198;87;21324;-88
2023/08/09 06:50:10;;;;;;;4.70;3.00;;;;;;;18.37;100.00;100668.70;1478962;88;21419;-86
2023/08/09 06:52:37;;;;;;;5.50;3.10;;;;;;;18.48;100.00;100667.66;1479042;87;22359;-88
2023/08/09 06:55:07;;;;;;;5.45;3.00;;;;;;;18.64;100.00;100675.09;1473147;87;21302;-87
2023/08/09 06:57:34;;;;;;;6.75;2.65;;;;;;;18.82;100.00;100671.47;1472585;87;21464;-89
2023/08/09 07:00:04;;;;;;;4.25;2.60;;;;;;;19.00;100.00;100667.45;1462339;88;22418;-87
2023/08/09 07:02:32;;;;;;;3.47;2.27;;;;;;;19.09;100.00;100668.95;1472212;87;21456;-85
2023/08/09 07:05:04;;;;;;;5.03;2.70;;;;;;;19.15;100.00;100672.17;1458961;88;21574;-85
2023/08/09 07:07:30;;;;;;;4.78;1.92;;;;;;;19.29;100.00;100675.24;1467021;88;21589;-85
2023/08/09 07:09:57;;;;;;;6.78;2.20;;;;;;;19.39;100.00;100675.72;1472824;87;21532;-84
2023/08/09 07:12:24;;;;;;;6.50;2.47;;;;;;;19.55;100.00;100677.73;1469601;88;21487;-86
2023/08/09 07:15:08;;;;;;;4.90;2.00;;;;;;;19.66;100.00;100675.85;1463341;88;21553;-84
2023/08/09 07:17:31;;;;;;;4.00;2.12;;;;;;;19.81;100.00;100678.38;1425572;90;22331;-86
2023/08/09 07:20:00;;;;;;;3.80;1.80;;;;;;;20.02;100.00;100677.39;1425913;90;21506;-88
2023/08/09 07:22:26;;;;;;;4.42;2.62;;;;;;;20.24;100.00;100674.84;1468490;87;22218;-85
2023/08/09 07:24:52;;;;;;;3.25;2.15;;;;;;;20.45;100.00;100678.38;1466969;88;22380;-83
2023/08/09 07:27:19;;;;;;;5.58;2.12;;;;;;;20.57;100.00;100675.42;1473216;88;21368;-87
2023/08/09 07:29:45;;;;;;;5.08;1.98;;;;;;;20.65;100.00;100679.23;1474484;87;21427;-87
2023/08/09 07:32:12;;;;;;;3.25;1.60;;;;;;;20.73;100.00;100683.05;1448575;88;21619;-87
2023/08/09 07:34:38;;;;;;;5.03;1.77;;;;;;;20.78;98.71;100676.23;1475235;87;21390;-86
2023/08/09 07:37:05;;;;;;;3.62;1.90;;;;;;;20.81;99.29;100675.30;1468023;88;21779;-86
2023/08/09 07:39:31;;;;;;;3.20;1.70;;;;;;;20.85;98.55;100675.17;1475201;87;21546;-86
2023/08/09 07:41:58;;;;;;;7.07;1.97;;;;;;;20.90;98.62;100673.22;1473162;87;22277;-87
2023/08/09 07:44:24;;;;;;;4.60;2.00;;;;;;;20.95;97.83;100672.08;1463503;88;22558;-86
2023/08/09 07:46:50;;;;;;;4.70;1.75;;;;;;;20.94;96.74;100665.88;1465610;88;21360;-85
2023/08/09 07:49:17;;;;;;;5.95;2.70;;;;;;;20.98;96.92;100666.80;1474657;88;21375;-88
2023/08/09 07:51:43;;;;;;;3.08;1.50;;;;;;;21.00;95.72;100661.48;1468731;88;21563;-87
2023/08/09 07:54:09;;;;;;;4.47;1.85;;;;;;;21.08;95.70;100663.95;1466230;88;21891;-85
2023/08/09 07:56:36;;;;;;;4.72;2.00;;;;;;;21.23;96.79;100664.22;1467246;88;21412;-87
2023/08/09 07:59:02;;;;;;;8.38;1.75;;;;;;;21.28;95.42;100663.08;1473880;87;21323;-86
2023/08/09 08:01:28;;;;;;;2.85;1.50;;;;;;;21.34;95.84;100668.95;1465149;88;21323;-87
2023/08/09 08:03:55;;;;;;;2.65;2.17;;;;;;;21.43;94.80;100665.53;1446230;88;21524;-86
2023/08/09 08:06:21;;;;;;;4.70;2.60;;;;;;;21.51;94.31;100663.95;1465249;88;21338;-84
2023/08/09 08:08:47;;;;;;;6.15;1.62;;;;;;;21.62;93.50;100662.76;1472508;87;21494;-85
2023/08/09 08:11:14;;;;;;;3.87;1.80;;;;;;;21.69;91.48;100660.02;1466566;88;21426;-87
2023/08/09 08:13:40;;;;;;;7.17;2.52;;;;;;;21.79;91.37;100651.49;1473221;87;21330;-85
2023/08/09 08:16:06;;;;;;;6.05;1.90;;;;;;;21.90;91.33;100650.81;1475267;87;21581;-83
2023/08/09 08:18:32;;;;;;;5.45;2.52;;;;;;;21.98;90.62;100650.55;1473071;87;21330;-83
2023/08/09 08:21:00;;;;;;;4.33;1.92;;;;;;;22.05;90.18;100656.71;1467527;88;21434;-86
2023/08/09 08:23:26;;;;;;;7.78;1.90;;;;;;;22.08;90.33;100650.88;1465782;88;21389;-87
2023/08/09 08:25:52;;;;;;;6.33;2.20;;;;;;;22.23;90.22;100659.21;1474099;87;22875;-89
2023/08/09 08:28:19;;;;;;;4.25;1.65;;;;;;;22.26;88.23;100647.98;1467629;88;21501;-87
2023/08/09 08:30:45;;;;;;;4.80;1.77;;;;;;;22.30;87.31;100659.48;1464527;88;21537;-86
2023/08/09 08:33:12;;;;;;;3.30;2.10;;;;;;;22.44;87.35;100653.95;1474006;88;22353;-87
2023/08/09 08:35:43;;;;;;;3.90;2.10;;;;;;;22.53;86.24;100649.96;1474359;87;21531;-85
2023/08/09 08:38:06;;;;;;;2.15;1.65;;;;;;;22.64;86.48;100655.13;1469897;88;21595;-87
2023/08/09 08:40:33;;;;;;;9.48;1.77;;;;;;;22.74;85.94;100652.77;1477447;88;21383;-89
2023/08/09 08:42:59;;;;;;;2.60;1.70;;;;;;;22.89;86.02;100654.58;1447621;88;21990;-85
2023/08/09 08:45:26;;;;;;;2.12;1.22;;;;;;;23.00;85.75;100649.53;1475485;87;21390;-88
2023/08/09 08:47:52;;;;;;;7.62;2.20;;;;;;;23.11;84.96;100650.14;1472915;87;22494;-87
2023/08/09 08:50:19;;;;;;;4.45;2.05;;;;;;;23.25;85.19;100648.94;1473837;87;21420;-87
2023/08/09 08:52:48;;;;;;;2.52;1.47;;;;;;;23.34;82.88;100650.28;1471876;87;21501;-88
2023/08/09 08:55:15;;;;;;;3.42;1.50;;;;;;;23.36;82.52;100644.14;1393539;87;21177;-86
2023/08/09 08:57:43;;;;;;;3.87;1.80;;;;;;;23.41;81.95;100643.44;1473131;87;21624;-85
2023/08/09 09:00:15;;;;;;;3.42;1.77;;;;;;;23.41;81.82;100638.85;1466863;88;21589;-89
2023/08/09 09:02:40;;;;;;;4.72;1.47;;;;;;;23.50;82.21;100637.20;1473146;87;21463;-89
2023/08/09 09:05:06;;;;;;;2.42;1.65;;;;;;;23.58;81.79;100634.19;1473849;88;21382;-87
2023/08/09 09:07:33;;;;;;;4.20;1.60;;;;;;;23.69;81.96;100638.81;1467372;88;21389;-88
2023/08/09 09:10:09;;;;;;;4.00;1.67;;;;;;;23.73;80.61;100644.08;1473853;87;21582;-83
2023/08/09 09:12:38;;;;;;;6.37;2.10;;;;;;;23.84;80.83;100632.48;1393864;87;21332;-82
2023/08/09 09:15:06;;;;;;;3.80;1.50;;;;;;;23.96;79.28;100639.27;1393658;88;21442;-83
2023/08/09 09:17:41;;;;;;;4.72;1.70;;;;;;;24.06;79.73;100633.33;1400507;87;21432;-82
2023/08/09 09:20:27;;;;;;;6.95;1.52;;;;;;;24.17;78.60;100635.23;1394341;87;21296;-83
2023/08/09 09:22:48;;;;;;;2.52;1.32;;;;;;;24.28;79.50;100632.23;1553634;87;21384;-82
2023/08/09 09:25:17;;;;;;;4.30;1.87;;;;;;;24.40;78.46;100630.89;1391446;88;22079;-82
2023/08/09 09:27:49;;;;;;;5.17;2.37;;;;;;;24.48;77.37;100625.16;1393940;88;21228;-83
2023/08/09 09:30:19;;;;;;;5.15;1.77;;;;;;;24.41;77.40;100623.09;1516620;87;21964;-83
2023/08/09 09:32:58;;;;;;;3.05;2.30;;;;;;;24.31;76.45;100618.23;1464607;88;21512;-82
2023/08/09 09:35:27;;;;;;;4.78;1.82;;;;;;;24.41;77.93;100614.97;1542640;87;21347;-83
2023/08/09 09:37:58;;;;;;;5.95;2.00;;;;;;;24.46;76.23;100613.24;1475305;88;21375;-82
2023/08/09 09:40:34;;;;;;;6.55;2.12;;;;;;;24.50;76.28;100617.11;1473239;88;22277;-81
2023/08/09 09:43:01;;;;;;;1.87;1.37;;;;;;;24.47;73.95;100617.58;1476606;88;21581;-83
2023/08/09 09:45:30;;;;;;;4.58;1.32;;;;;;;24.44;67.06;100614.53;1477656;88;21456;-84
2023/08/09 09:48:00;;;;;;;4.00;1.55;;;;;;;24.54;65.36;100615.60;1475183;88;21353;-83
2023/08/09 09:50:28;;;;;;;5.22;1.37;;;;;;;24.63;65.32;100608.45;1394045;88;21465;-82
2023/08/09 09:52:56;;;;;;;3.08;1.40;;;;;;;24.71;65.65;100607.56;1410484;88;21376;-83
2023/08/09 09:55:28;;;;;;;2.22;1.30;;;;;;;24.69;46.43;100608.36;1403230;87;21429;-83
2023/08/09 09:57:56;;;;;;;4.42;2.12;;;;;;;24.76;46.46;100610.92;1558789;87;21169;-84
2023/08/09 10:00:25;;;;;;;2.62;1.50;;;;;;;24.92;47.12;100606.69;1397026;87;21258;-84
2023/08/09 10:02:54;;;;;;;8.88;1.67;;;;;;;25.10;46.65;100601.64;1446689;88;21485;-83
2023/08/09 10:05:35;;;;;;;7.22;2.15;;;;;;;25.17;46.17;100603.16;1462037;88;21999;-84
2023/08/09 10:08:08;;;;;;;5.45;1.70;;;;;;;25.29;46.60;100604.50;1462752;88;21581;-83
2023/08/09 10:10:39;;;;;;;2.85;1.45;;;;;;;25.27;46.97;100599.03;1473898;87;21478;-84
2023/08/09 10:13:07;;;;;;;6.17;1.95;;;;;;;25.34;47.31;100599.70;1476685;88;21562;-84
2023/08/09 10:15:42;;;;;;;1.77;1.42;;;;;;;25.39;47.32;100597.09;1474638;88;21360;-84
2023/08/09 10:18:13;;;;;;;7.37;1.72;;;;;;;25.38;45.76;100596.82;1474195;88;21456;-85
2023/08/09 10:20:50;;;;;;;3.33;1.70;;;;;;;25.37;45.59;100588.38;1541217;87;21360;-84
2023/08/09 10:23:30;;;;;;;3.22;1.17;;;;;;;25.28;44.91;100597.96;1473772;88;21368;-83
2023/08/09 10:25:58;;;;;;;3.22;1.50;;;;;;;25.13;45.08;100595.20;1474203;87;22359;-81
2023/08/09 10:28:45;;;;;;;5.33;1.87;;;;;;;25.06;45.32;100592.33;1395738;87;21236;-83
2023/08/09 10:31:55;;;;;;;5.22;1.45;;;;;;;25.10;45.90;100590.27;1445306;89;21287;-84
2023/08/09 10:45:25;;;;;;;2.52;1.37;;;;;;;25.76;42.29;100583.14;1558093;88;21324;-83
2023/08/09 10:47:51;;;;;;;4.28;1.55;;;;;;;25.59;41.40;100588.00;1404430;87;21552;-84
2023/08/09 10:50:18;;;;;;;6.70;3.08;;;;;;;25.48;41.47;100582.09;1539337;88;21419;-84
2023/08/09 10:52:49;;;;;;;2.98;1.35;;;;;;;25.55;40.32;100581.43;1474059;87;21567;-84
2023/08/09 10:55:26;;;;;;;2.08;1.47;;;;;;;25.53;40.39;100577.31;1474061;87;21468;-84
2023/08/09 10:57:55;;;;;;;2.22;1.50;;;;;;;25.45;40.24;100578.52;1557731;87;21969;-84
2023/08/09 11:00:24;;;;;;;1.93;1.37;;;;;;;25.36;39.95;100569.14;1395546;87;22235;-83
2023/08/09 11:02:54;;;;;;;2.77;1.25;;;;;;;25.38;39.33;100573.80;1394389;87;22034;-84
2023/08/09 11:05:22;;;;;;;4.53;1.20;;;;;;;25.49;39.23;100569.36;1393166;87;21257;-83
2023/08/09 11:07:54;;;;;;;2.52;1.40;;;;;;;25.60;39.27;100568.48;1390060;89;22311;-84
2023/08/09 11:10:36;;;;;;;3.85;1.67;;;;;;;25.76;39.79;100562.82;1519140;87;22300;-84
2023/08/09 11:13:06;;;;;;;3.30;1.22;;;;;;;25.86;39.60;100562.47;1386347;89;22145;-84
2023/08/09 11:15:34;;;;;;;4.65;1.60;;;;;;;26.01;39.81;100561.92;1399781;88;21493;-84
2023/08/09 11:18:01;;;;;;;2.05;1.50;;;;;;;26.14;39.81;100566.72;1396840;87;21331;-84
2023/08/09 11:20:27;;;;;;;2.87;1.15;;;;;;;26.20;39.53;100568.44;1399281;88;21213;-84
2023/08/09 11:22:57;;;;;;;2.50;1.50;;;;;;;26.32;39.08;100555.59;1403981;87;22109;-84
2023/08/09 11:25:25;;;;;;;4.97;1.32;;;;;;;26.38;38.69;100555.13;1556940;87;22325;-84
2023/08/09 11:27:57;;;;;;;3.80;1.42;;;;;;;26.54;38.12;100557.85;1401728;87;21287;-84
2023/08/09 11:30:25;;;;;;;2.20;1.45;;;;;;;26.71;38.30;100546.14;1521001;87;21399;-84
2023/08/09 11:32:59;;;;;;;5.67;1.05;;;;;;;26.87;37.88;100543.88;1396005;87;21221;-83
2023/08/09 11:35:39;;;;;;;2.60;1.37;;;;;;;26.90;37.51;100545.27;1550756;88;21317;-84
2023/08/09 11:38:12;;;;;;;2.12;1.27;;;;;;;26.64;36.67;100548.20;1520260;88;22322;-83